Viking Queen — WDB9919 — position and weather

sailwx.info

Track history (hours):
 
Tides and Currents Weather Stations Pressure Air Temp Water Temp Dewpoint Dewpoint Depression Visibility Wind Speed Wind Dir Waves Ship Positions

Viking Queen

Owner: American River Transportation Company, St Louis, MO. More information available from US FCC via Universal Licensing System and Coast Guard Vessel Documentation Center.

Last reported at 2017-Dec-08 23:13 UTC. Time now 2017-Dec-17 06:39 UTC.
Position N 32°45' W 091°09'.
Warning: this ship's position is 8 days out of date.

Length 58 m; draft 3 m.

Type: Towing. MMSI: 366985050.

Date/timePositionNaut miles runAvg speedWind from/ knotsBaromVisibWave heightAir tempDewpointWater temp
2017-Dec-08 23:13N 32°45' W 091°09'5 1.4
2017-Dec-08 19:36N 32°40' W 091°08'1 4.2
2017-Dec-08 19:28N 32°40' W 091°08'2 4.7
2017-Dec-08 19:00N 32°38' W 091°09'2 4.6
2017-Dec-08 18:30N 32°36' W 091°08'3 5.1
2017-Dec-08 18:00N 32°34' W 091°06'2 4.7
2017-Dec-08 17:30N 32°31' W 091°06'3 5.5
2017-Dec-08 17:00N 32°29' W 091°07'3 5.3
2017-Dec-08 16:30N 32°27' W 091°05'3 5.5
2017-Dec-08 16:00N 32°26' W 091°02'2 4.5
2017-Dec-08 15:30N 32°25' W 090°60'2 4.4
2017-Dec-08 15:00N 32°22' W 091°00'2 4.2
2017-Dec-08 14:30N 32°21' W 090°58'3 5.2
2017-Dec-08 14:00N 32°21' W 090°55'2 4.2
2017-Dec-08 13:30N 32°19' W 090°54'3 5.5
2017-Dec-08 13:00N 32°17' W 090°57'2 4.7
2017-Dec-08 12:30N 32°15' W 090°59'2 4.1
2017-Dec-08 12:00N 32°13' W 090°59'2 4.5
2017-Dec-08 11:27N 32°11' W 090°60'2 4.7
2017-Dec-08 11:00N 32°09' W 091°00'2 4.3
2017-Dec-08 10:29N 32°07' W 091°02'2 5.0
2017-Dec-08 10:00N 32°08' W 091°05'1 2.0
2017-Dec-08 09:30N 32°08' W 091°06'2 3.8
2017-Dec-08 08:59N 32°06' W 091°06'3 4.7
2017-Dec-08 08:17N 32°03' W 091°03'  
2017-Dec-04 09:29N 31°31' W 091°31'4 8.5
2017-Dec-04 08:59N 31°33' W 091°26'5 7.9
2017-Dec-04 08:22N 31°37' W 091°24'3 8.9
2017-Dec-04 08:00N 31°40' W 091°24'4 8.4
2017-Dec-04 07:30N 31°44' W 091°22'4 8.8
2017-Dec-04 07:00N 31°49' W 091°21'4 7.1
2017-Dec-04 06:26N 31°51' W 091°18'4 8.4
2017-Dec-04 05:59N 31°53' W 091°14'5 8.6
2017-Dec-04 05:25N 31°57' W 091°11'4 7.8
2017-Dec-04 04:53N 31°59' W 091°07'3 7.9
2017-Dec-04 04:30N 32°01' W 091°04'4 7.5
2017-Dec-04 03:55N 32°05' W 091°05'2 6.0
2017-Dec-04 03:30N 32°07' W 091°07'2 4.9
2017-Dec-04 03:00N 32°08' W 091°04'3 6.9
2017-Dec-04 02:30N 32°09' W 091°00'4 8.9
2017-Dec-04 02:00N 32°14' W 090°59'4 8.4
2017-Dec-04 01:30N 32°17' W 090°56'4 7.0
2017-Dec-04 01:00N 32°20' W 090°54'4 8.6
2017-Dec-04 00:30N 32°21' W 090°59'4 7.6
2017-Dec-04 00:00N 32°25' W 090°60'4 8.8
2017-Dec-03 23:30N 32°27' W 091°05'4 8.0
2017-Dec-03 23:00N 32°30' W 091°07'4 8.3
2017-Dec-03 22:30N 32°34' W 091°07'6 7.8
2017-Dec-03 21:48N 32°40' W 091°08'  
Track history (hours):
 
Tides and Currents Weather Stations Pressure Air Temp Water Temp Dewpoint Dewpoint Depression Visibility Wind Speed Wind Dir Waves Ship Positions

Viking Queen

Owner: American River Transportation Company, St Louis, MO. More information available from US FCC via Universal Licensing System and Coast Guard Vessel Documentation Center.

Last reported at 2017-Dec-08 23:13 UTC. Time now 2017-Dec-17 06:39 UTC.
Position N 32°45' W 091°09'.
Warning: this ship's position is 8 days out of date.

Length 58 m; draft 3 m.

Type: Towing. MMSI: 366985050.

Date/timePositionNaut miles runAvg speedWind from/ knotsBaromVisibWave heightAir tempDewpointWater temp
2017-Dec-08 23:13N 32°45' W 091°09'5 1.4
2017-Dec-08 19:36N 32°40' W 091°08'1 4.2
2017-Dec-08 19:28N 32°40' W 091°08'2 4.7
2017-Dec-08 19:00N 32°38' W 091°09'2 4.6
2017-Dec-08 18:30N 32°36' W 091°08'3 5.1
2017-Dec-08 18:00N 32°34' W 091°06'2 4.7
2017-Dec-08 17:30N 32°31' W 091°06'3 5.5
2017-Dec-08 17:00N 32°29' W 091°07'3 5.3
2017-Dec-08 16:30N 32°27' W 091°05'3 5.5
2017-Dec-08 16:00N 32°26' W 091°02'2 4.5
2017-Dec-08 15:30N 32°25' W 090°60'2 4.4
2017-Dec-08 15:00N 32°22' W 091°00'2 4.2
2017-Dec-08 14:30N 32°21' W 090°58'3 5.2
2017-Dec-08 14:00N 32°21' W 090°55'2 4.2
2017-Dec-08 13:30N 32°19' W 090°54'3 5.5
2017-Dec-08 13:00N 32°17' W 090°57'2 4.7
2017-Dec-08 12:30N 32°15' W 090°59'2 4.1
2017-Dec-08 12:00N 32°13' W 090°59'2 4.5
2017-Dec-08 11:27N 32°11' W 090°60'2 4.7
2017-Dec-08 11:00N 32°09' W 091°00'2 4.3
2017-Dec-08 10:29N 32°07' W 091°02'2 5.0
2017-Dec-08 10:00N 32°08' W 091°05'1 2.0
2017-Dec-08 09:30N 32°08' W 091°06'2 3.8
2017-Dec-08 08:59N 32°06' W 091°06'3 4.7
2017-Dec-08 08:17N 32°03' W 091°03'  
2017-Dec-04 09:29N 31°31' W 091°31'4 8.5
2017-Dec-04 08:59N 31°33' W 091°26'5 7.9
2017-Dec-04 08:22N 31°37' W 091°24'3 8.9
2017-Dec-04 08:00N 31°40' W 091°24'4 8.4
2017-Dec-04 07:30N 31°44' W 091°22'4 8.8
2017-Dec-04 07:00N 31°49' W 091°21'4 7.1
2017-Dec-04 06:26N 31°51' W 091°18'4 8.4
2017-Dec-04 05:59N 31°53' W 091°14'5 8.6
2017-Dec-04 05:25N 31°57' W 091°11'4 7.8
2017-Dec-04 04:53N 31°59' W 091°07'3 7.9
2017-Dec-04 04:30N 32°01' W 091°04'4 7.5
2017-Dec-04 03:55N 32°05' W 091°05'2 6.0
2017-Dec-04 03:30N 32°07' W 091°07'2 4.9
2017-Dec-04 03:00N 32°08' W 091°04'3 6.9
2017-Dec-04 02:30N 32°09' W 091°00'4 8.9
2017-Dec-04 02:00N 32°14' W 090°59'4 8.4
2017-Dec-04 01:30N 32°17' W 090°56'4 7.0
2017-Dec-04 01:00N 32°20' W 090°54'4 8.6
2017-Dec-04 00:30N 32°21' W 090°59'4 7.6
2017-Dec-04 00:00N 32°25' W 090°60'4 8.8
2017-Dec-03 23:30N 32°27' W 091°05'4 8.0
2017-Dec-03 23:00N 32°30' W 091°07'4 8.3
2017-Dec-03 22:30N 32°34' W 091°07'6 7.8
2017-Dec-03 21:48N 32°40' W 091°08'  

Dump ship's entire track history